Аэропорт
Мирный (UERR)

 UERR / MJZ
ЗЦ Хабаровск
Якутск (UEEE)
Якутск (UEEE)
 62.53470, 114.03900  / 1156 ft

 UERR 261130Z 00000MPS 1800 BR NSC M41/M44 Q1034 R25/490337 TEMPO 0500 FG RMK QFE744/0992
 TAF UERR 260800Z 2609/2709 VRB01MPS 1000 BR NSC TXM39/2609Z TNM49/2623Z TEMPO 2609/2615 0400 FG VV002 BECMG 2621/2623 0800 FG TEMPO 2623/2704 0300 FG VV001
UERR_j_0220
показать схемы
Название сценария Тип сценария Flight Simulator 9 Flight Simulator X Prepar3D v2 Prepar3D v3 Prepar3D v4 Prepar3D v5 xPlane
Siberian Scenery Development - UERR Mirny v1.0.rar бесплатный
UERR2013 X-plane бесплатный


2020 © VATRUS division (Privacy Policy)